Time;durP1;ratioP1;P1;durP2;ratioP2;P2;SDS_P1;SDS_P2;PMS_P1;PMS_P2;Temp;Humidity;BMP_temperature;BMP_pressure;BME280_temperature;BME280_humidity;BME280_pressure;Samples;Min_cycle;Max_cycle;Signal;HPM_P1;HPM_P2
2023/06/13 00:00:49;;;;;;;;;20.33;19.33;;;;;-144.24;100.00;60536.00;5065503;28;52512;-77
2023/06/13 00:03:15;;;;;;;;;21.00;19.67;;;;;-144.24;100.00;60536.00;5074258;28;45379;-77
2023/06/13 00:05:46;;;;;;;;;21.33;18.00;;;;;-144.24;100.00;60536.00;5063142;28;45441;-76
2023/06/13 00:08:17;;;;;;;;;22.67;18.33;;;;;-144.24;100.00;60536.00;5074115;28;45996;-76
2023/06/13 00:10:44;;;;;;;;;24.33;20.33;;;;;-144.24;100.00;60536.00;5070406;28;45455;-77
2023/06/13 00:13:10;;;;;;;;;22.67;18.67;;;;;-144.24;100.00;60536.00;5049428;28;45370;-76
2023/06/13 00:15:35;;;;;;;;;18.33;18.33;;;;;-144.24;100.00;60536.00;5071295;28;45407;-76
2023/06/13 00:18:01;;;;;;;;;22.33;22.00;;;;;-144.24;100.00;60536.00;5070497;28;71602;-77
2023/06/13 00:20:26;;;;;;;;;23.00;20.33;;;;;-144.24;100.00;60536.00;5075017;28;45351;-76
2023/06/13 00:22:52;;;;;;;;;26.00;23.67;;;;;-144.24;100.00;60536.00;5068007;28;45343;-77
2023/06/13 00:25:17;;;;;;;;;19.67;18.33;;;;;-144.24;100.00;60536.00;5064777;28;45366;-76
2023/06/13 00:27:42;;;;;;;;;22.00;19.33;;;;;-144.24;100.00;60536.00;5063148;28;69313;-77
2023/06/13 00:30:08;;;;;;;;;22.33;20.33;;;;;-144.24;100.00;60536.00;5074061;28;49287;-76
2023/06/13 00:32:33;;;;;;;;;21.33;19.67;;;;;-144.24;100.00;60536.00;5074200;28;45507;-76
2023/06/13 00:34:59;;;;;;;;;24.33;21.67;;;;;-144.24;100.00;60536.00;5074476;28;48342;-77
2023/06/13 00:37:29;;;;;;;;;23.00;22.67;;;;;-144.24;100.00;60536.00;5070903;28;47406;-76
2023/06/13 00:39:54;;;;;;;;;21.00;21.00;;;;;-144.24;100.00;60536.00;5073959;28;45368;-77
2023/06/13 00:42:20;;;;;;;;;23.33;22.00;;;;;-144.24;100.00;60536.00;5068782;28;45411;-77
2023/06/13 00:44:46;;;;;;;;;23.67;21.67;;;;;-144.24;100.00;60536.00;5067073;28;45283;-76
2023/06/13 00:47:13;;;;;;;;;21.00;19.00;;;;;-144.24;100.00;60536.00;5054416;28;46388;-76
2023/06/13 00:49:40;;;;;;;;;26.00;23.00;;;;;-144.24;100.00;60536.00;5075402;28;45490;-77
2023/06/13 00:52:05;;;;;;;;;22.00;19.33;;;;;-144.24;100.00;60536.00;5047448;28;46642;-76
2023/06/13 00:54:34;;;;;;;;;20.00;18.33;;;;;-144.24;100.00;60536.00;5047455;28;45411;-75
2023/06/13 00:57:00;;;;;;;;;24.33;21.00;;;;;-144.24;100.00;60536.00;5072080;28;47414;-76
2023/06/13 00:59:25;;;;;;;;;21.67;20.33;;;;;-144.24;100.00;60536.00;5074615;28;45535;-76
2023/06/13 01:01:52;;;;;;;;;24.00;19.67;;;;;-144.24;100.00;60536.00;5057948;28;64711;-76
2023/06/13 01:04:19;;;;;;;;;29.00;22.67;;;;;-144.24;100.00;60536.00;5074854;28;45193;-76
2023/06/13 01:06:45;;;;;;;;;19.33;19.00;;;;;-144.24;100.00;60536.00;5075206;28;46704;-76
2023/06/13 01:09:12;;;;;;;;;24.67;22.00;;;;;-144.24;100.00;60536.00;5069628;28;45566;-77
2023/06/13 01:12:01;;;;;;;;;23.33;21.33;;;;;-144.24;100.00;60536.00;5061565;28;45339;-77
2023/06/13 01:14:36;;;;;;;;;21.00;20.33;;;;;-144.24;100.00;60536.00;5058884;28;45596;-77
2023/06/13 01:17:04;;;;;;;;;26.67;24.33;;;;;-144.24;100.00;60536.00;5073969;28;47573;-77
2023/06/13 01:19:41;;;;;;;;;22.00;22.00;;;;;-144.24;100.00;60536.00;5058275;28;45554;-77
2023/06/13 01:22:17;;;;;;;;;25.00;22.67;;;;;-144.24;100.00;60536.00;5074139;28;45552;-78
2023/06/13 01:25:13;;;;;;;;;21.33;20.33;;;;;-144.24;100.00;60536.00;5053423;28;45511;-77
2023/06/13 01:27:39;;;;;;;;;22.67;21.67;;;;;-144.24;100.00;60536.00;5061576;28;46845;-78
2023/06/13 01:30:05;;;;;;;;;22.67;19.33;;;;;-144.24;100.00;60536.00;5063550;28;45562;-78
2023/06/13 01:32:32;;;;;;;;;22.00;21.00;;;;;-144.24;100.00;60536.00;5059134;28;45378;-77
2023/06/13 01:34:58;;;;;;;;;23.33;20.33;;;;;-144.24;100.00;60536.00;5077280;28;45558;-76
2023/06/13 01:37:24;;;;;;;;;24.00;20.00;;;;;-144.24;100.00;60536.00;5059470;28;46359;-77
2023/06/13 01:39:49;;;;;;;;;24.67;23.00;;;;;-144.24;100.00;60536.00;5058078;28;45276;-76
2023/06/13 01:42:15;;;;;;;;;24.00;21.33;;;;;-144.24;100.00;60536.00;5074142;28;65406;-77
2023/06/13 01:44:40;;;;;;;;;26.33;22.33;;;;;-144.24;100.00;60536.00;5075636;28;65843;-77
2023/06/13 01:47:14;;;;;;;;;21.67;18.00;;;;;-144.24;100.00;60536.00;5059119;28;53305;-76
2023/06/13 01:50:11;;;;;;;;;22.00;20.33;;;;;-144.24;100.00;60536.00;5077172;28;45462;-77
2023/06/13 01:52:44;;;;;;;;;24.00;22.00;;;;;-144.24;100.00;60536.00;5044370;28;45301;-77
2023/06/13 01:55:14;;;;;;;;;27.00;24.00;;;;;-144.24;100.00;60536.00;5049403;28;45416;-77
2023/06/13 01:57:44;;;;;;;;;25.00;22.00;;;;;-144.24;100.00;60536.00;5051414;28;47889;-78
2023/06/13 02:00:15;;;;;;;;;23.33;23.33;;;;;-144.24;100.00;60536.00;5050077;28;45496;-77
2023/06/13 02:02:41;;;;;;;;;24.00;24.00;;;;;-144.24;100.00;60536.00;5054901;28;45573;-77
2023/06/13 02:05:08;;;;;;;;;23.33;22.33;;;;;-144.24;100.00;60536.00;5051061;28;46709;-77
2023/06/13 02:07:36;;;;;;;;;23.33;22.00;;;;;-144.24;100.00;60536.00;5078265;28;46154;-77
2023/06/13 02:10:05;;;;;;;;;23.00;20.67;;;;;-144.24;100.00;60536.00;5071349;28;45533;-78
2023/06/13 02:12:30;;;;;;;;;24.33;21.67;;;;;-144.24;100.00;60536.00;5076121;28;45500;-77
2023/06/13 02:14:56;;;;;;;;;30.33;24.33;;;;;-144.24;100.00;60536.00;5075576;28;45592;-77
2023/06/13 02:17:22;;;;;;;;;19.67;19.67;;;;;-144.24;100.00;60536.00;5077262;28;47499;-78
2023/06/13 02:19:47;;;;;;;;;25.33;23.33;;;;;-144.24;100.00;60536.00;5075943;28;45421;-76
2023/06/13 02:22:12;;;;;;;;;28.00;22.33;;;;;-144.24;100.00;60536.00;5076128;28;62224;-76
2023/06/13 02:24:38;;;;;;;;;25.67;24.33;;;;;-144.24;100.00;60536.00;5073627;28;63626;-76
2023/06/13 02:27:03;;;;;;;;;24.00;23.33;;;;;-144.24;100.00;60536.00;5065275;28;46520;-76
2023/06/13 02:29:31;;;;;;;;;28.67;24.33;;;;;-144.24;100.00;60536.00;5065116;28;46133;-76
2023/06/13 02:31:56;;;;;;;;;25.67;23.00;;;;;-144.24;100.00;60536.00;5074803;28;45535;-76
2023/06/13 02:34:23;;;;;;;;;21.33;21.33;;;;;-144.24;100.00;60536.00;5070325;28;45326;-77
2023/06/13 02:36:48;;;;;;;;;29.33;25.67;;;;;-144.24;100.00;60536.00;5068485;28;71331;-77
2023/06/13 02:39:13;;;;;;;;;27.67;23.00;;;;;-144.24;100.00;60536.00;5074083;28;45485;-77
2023/06/13 02:41:39;;;;;;;;;29.67;26.00;;;;;-144.24;100.00;60536.00;5069027;28;61137;-77
2023/06/13 02:44:04;;;;;;;;;29.67;26.33;;;;;-144.24;100.00;60536.00;5072557;28;45451;-76
2023/06/13 02:46:29;;;;;;;;;27.00;24.67;;;;;-144.24;100.00;60536.00;5074141;28;67860;-76
2023/06/13 02:48:55;;;;;;;;;26.33;24.33;;;;;-144.24;100.00;60536.00;5070749;28;45443;-77
2023/06/13 02:51:20;;;;;;;;;24.00;23.00;;;;;-144.24;100.00;60536.00;5068309;28;45296;-76
2023/06/13 02:53:46;;;;;;;;;24.00;22.67;;;;;-144.24;100.00;60536.00;5068412;28;45399;-77
2023/06/13 02:56:12;;;;;;;;;24.00;23.33;;;;;-144.24;100.00;60536.00;5070639;28;69381;-77
2023/06/13 02:58:37;;;;;;;;;24.67;24.67;;;;;-144.24;100.00;60536.00;5076726;28;45351;-77
2023/06/13 03:01:03;;;;;;;;;28.00;23.33;;;;;-144.24;100.00;60536.00;5073483;28;45597;-76
2023/06/13 03:03:29;;;;;;;;;26.67;23.33;;;;;-144.24;100.00;60536.00;5069297;28;45417;-76
2023/06/13 03:05:59;;;;;;;;;22.67;21.00;;;;;-144.24;100.00;60536.00;5057780;28;45863;-76
2023/06/13 03:08:26;;;;;;;;;22.67;19.00;;;;;-144.24;100.00;60536.00;5052683;28;45434;-77
2023/06/13 03:10:52;;;;;;;;;24.33;22.33;;;;;-144.24;100.00;60536.00;5076249;28;45472;-78
2023/06/13 03:13:18;;;;;;;;;23.67;21.67;;;;;-144.24;100.00;60536.00;5076822;28;45273;-77
2023/06/13 03:15:45;;;;;;;;;26.00;24.33;;;;;-144.24;100.00;60536.00;5069991;28;46749;-77
2023/06/13 03:18:11;;;;;;;;;30.67;23.33;;;;;-144.24;100.00;60536.00;5070935;28;45302;-77
2023/06/13 03:20:37;;;;;;;;;23.00;20.67;;;;;-144.24;100.00;60536.00;5071444;28;45280;-78
2023/06/13 03:23:02;;;;;;;;;29.00;27.33;;;;;-144.24;100.00;60536.00;5074126;28;45524;-77
2023/06/13 03:25:28;;;;;;;;;24.00;20.33;;;;;-144.24;100.00;60536.00;5056354;28;47720;-77
2023/06/13 03:27:53;;;;;;;;;29.33;25.33;;;;;-144.24;100.00;60536.00;5072642;28;67639;-78
2023/06/13 03:30:18;;;;;;;;;28.00;28.00;;;;;-144.24;100.00;60536.00;5075190;28;60969;-76
2023/06/13 03:32:44;;;;;;;;;24.67;23.00;;;;;-144.24;100.00;60536.00;5066792;28;49790;-76
2023/06/13 03:35:09;;;;;;;;;21.33;21.33;;;;;-144.24;100.00;60536.00;5067172;28;47310;-77
2023/06/13 03:37:35;;;;;;;;;28.67;24.33;;;;;-144.24;100.00;60536.00;5064332;28;45452;-76
2023/06/13 03:40:00;;;;;;;;;28.00;26.00;;;;;-144.24;100.00;60536.00;5066033;28;64157;-77
2023/06/13 03:42:25;;;;;;;;;25.67;20.00;;;;;-144.24;100.00;60536.00;5071658;28;51783;-78
2023/06/13 03:44:51;;;;;;;;;24.33;23.33;;;;;-144.24;100.00;60536.00;5075977;28;67838;-76
2023/06/13 03:47:16;;;;;;;;;27.33;26.00;;;;;-144.24;100.00;60536.00;5069140;28;67199;-77
2023/06/13 03:49:42;;;;;;;;;31.33;28.00;;;;;-144.24;100.00;60536.00;5075521;28;53627;-76
2023/06/13 03:52:08;;;;;;;;;26.33;24.00;;;;;-144.24;100.00;60536.00;5067534;28;45644;-77
2023/06/13 03:54:33;;;;;;;;;25.33;23.33;;;;;-144.24;100.00;60536.00;5073550;28;47522;-76
2023/06/13 03:56:59;;;;;;;;;24.33;24.33;;;;;-144.24;100.00;60536.00;5069018;28;45186;-77
2023/06/13 03:59:24;;;;;;;;;25.67;25.67;;;;;-144.24;100.00;60536.00;5067419;28;45366;-77
2023/06/13 04:01:50;;;;;;;;;23.33;21.33;;;;;-144.24;100.00;60536.00;5069554;28;45316;-77
2023/06/13 04:04:15;;;;;;;;;24.00;23.00;;;;;-144.24;100.00;60536.00;5064878;28;47505;-77
2023/06/13 04:06:41;;;;;;;;;29.00;25.00;;;;;-144.24;100.00;60536.00;5073887;28;45414;-77
2023/06/13 04:09:07;;;;;;;;;29.00;25.00;;;;;-144.24;100.00;60536.00;5065819;28;45534;-77
2023/06/13 04:11:33;;;;;;;;;27.67;26.33;;;;;-144.24;100.00;60536.00;5069998;28;45556;-76
2023/06/13 04:14:00;;;;;;;;;25.67;24.33;;;;;-144.24;100.00;60536.00;5069369;28;47618;-76
2023/06/13 04:16:25;;;;;;;;;29.00;24.00;;;;;-144.24;100.00;60536.00;5063685;28;45493;-77
2023/06/13 04:18:54;;;;;;;;;27.00;25.33;;;;;-144.24;100.00;60536.00;5071374;28;62128;-76
2023/06/13 04:21:21;;;;;;;;;25.00;24.67;;;;;-144.24;100.00;60536.00;5050364;28;45453;-76
2023/06/13 04:23:48;;;;;;;;;28.33;24.33;;;;;-144.24;100.00;60536.00;5072585;28;46739;-77
2023/06/13 04:26:17;;;;;;;;;27.67;25.33;;;;;-144.24;100.00;60536.00;5067218;28;45495;-76
2023/06/13 04:28:43;;;;;;;;;25.67;25.67;;;;;-144.24;100.00;60536.00;5074014;28;45260;-77
2023/06/13 04:31:10;;;;;;;;;33.33;28.00;;;;;-144.24;100.00;60536.00;5077050;28;45598;-78
2023/06/13 04:33:39;;;;;;;;;30.00;25.67;;;;;-144.24;100.00;60536.00;5050875;28;47545;-77
2023/06/13 04:36:08;;;;;;;;;30.33;27.33;;;;;-144.24;100.00;60536.00;5076148;28;45306;-77
2023/06/13 04:38:35;;;;;;;;;30.67;27.33;;;;;-144.24;100.00;60536.00;5076323;28;45157;-77
2023/06/13 04:41:01;;;;;;;;;28.00;27.33;;;;;-144.24;100.00;60536.00;5078606;28;45582;-77
2023/06/13 04:43:33;;;;;;;;;26.33;24.00;;;;;-144.24;100.00;60536.00;5073443;28;46562;-78
2023/06/13 04:46:03;;;;;;;;;27.67;27.00;;;;;-144.24;100.00;60536.00;5071196;28;45355;-78
2023/06/13 04:48:30;;;;;;;;;28.33;28.33;;;;;-144.24;100.00;60536.00;5068020;28;45439;-76
2023/06/13 04:50:56;;;;;;;;;27.33;26.00;;;;;-144.24;100.00;60536.00;5061281;28;45474;-78
2023/06/13 04:53:23;;;;;;;;;30.33;26.67;;;;;-144.24;100.00;60536.00;5068660;28;47501;-77
2023/06/13 04:55:49;;;;;;;;;27.33;26.00;;;;;-144.24;100.00;60536.00;5052765;28;46479;-78
2023/06/13 04:58:17;;;;;;;;;24.67;24.00;;;;;-144.24;100.00;60536.00;5073754;28;45447;-78
2023/06/13 05:00:43;;;;;;;;;32.33;24.00;;;;;-144.24;100.00;60536.00;5075685;28;45606;-78
2023/06/13 05:03:09;;;;;;;;;29.67;26.67;;;;;-144.24;100.00;60536.00;5075149;28;46581;-78
2023/06/13 05:05:34;;;;;;;;;33.00;25.33;;;;;-144.24;100.00;60536.00;5054270;28;45508;-77
2023/06/13 05:08:00;;;;;;;;;25.67;22.00;;;;;-144.24;100.00;60536.00;5071964;28;45355;-78
2023/06/13 05:10:26;;;;;;;;;24.00;24.00;;;;;-144.24;100.00;60536.00;5070745;28;46486;-77
2023/06/13 05:12:52;;;;;;;;;28.67;27.00;;;;;-144.24;100.00;60536.00;5075382;28;47496;-77
2023/06/13 05:15:18;;;;;;;;;25.67;24.33;;;;;-144.24;100.00;60536.00;5073413;28;45452;-77
2023/06/13 05:17:48;;;;;;;;;25.33;24.33;;;;;-144.24;100.00;60536.00;5075352;28;45523;-77
2023/06/13 05:20:14;;;;;;;;;23.67;23.33;;;;;-144.24;100.00;60536.00;5058686;28;45574;-78
2023/06/13 05:22:41;;;;;;;;;29.33;25.33;;;;;-144.24;100.00;60536.00;5076481;28;46906;-77
2023/06/13 05:25:11;;;;;;;;;25.67;24.33;;;;;-144.24;100.00;60536.00;5075982;28;46503;-78
2023/06/13 05:27:37;;;;;;;;;28.00;20.67;;;;;-144.24;100.00;60536.00;5061096;28;46119;-78
2023/06/13 05:30:02;;;;;;;;;29.00;24.33;;;;;-144.24;100.00;60536.00;5073956;28;60095;-77
2023/06/13 05:32:27;;;;;;;;;24.33;23.33;;;;;-144.24;100.00;60536.00;5068862;28;48060;-77
2023/06/13 05:34:53;;;;;;;;;25.67;23.00;;;;;-144.24;100.00;60536.00;5071126;28;67234;-78
2023/06/13 05:37:18;;;;;;;;;25.67;25.00;;;;;-144.24;100.00;60536.00;5050031;28;60770;-78
2023/06/13 05:39:44;;;;;;;;;30.33;25.00;;;;;-144.24;100.00;60536.00;5065387;28;56251;-77
2023/06/13 05:42:10;;;;;;;;;27.00;26.00;;;;;-144.24;100.00;60536.00;5073904;28;47600;-78
2023/06/13 05:44:35;;;;;;;;;26.67;25.33;;;;;-144.24;100.00;60536.00;5077076;28;45521;-75
2023/06/13 05:47:00;;;;;;;;;28.00;25.00;;;;;-144.24;100.00;60536.00;5077928;27;45536;-76
2023/06/13 05:49:26;;;;;;;;;24.67;24.33;;;;;-144.24;100.00;60536.00;5076796;27;56726;-75
2023/06/13 05:51:53;;;;;;;;;23.00;21.00;;;;;-144.24;100.00;60536.00;5071700;27;70890;-76
2023/06/13 05:54:18;;;;;;;;;28.33;22.67;;;;;-144.24;100.00;60536.00;5077109;27;45443;-76
2023/06/13 05:56:44;;;;;;;;;27.00;21.33;;;;;-144.24;100.00;60536.00;5073493;27;45563;-75
2023/06/13 05:59:09;;;;;;;;;26.67;25.33;;;;;-144.24;100.00;60536.00;5069914;28;52106;-75
2023/06/13 06:01:35;;;;;;;;;31.33;27.00;;;;;-144.24;100.00;60536.00;5080968;27;46617;-75
2023/06/13 06:04:00;;;;;;;;;22.67;22.00;;;;;-144.24;100.00;60536.00;5072788;28;45402;-76
2023/06/13 06:06:25;;;;;;;;;25.33;25.33;;;;;-144.24;100.00;60536.00;5074238;28;59346;-77
2023/06/13 06:08:51;;;;;;;;;26.00;21.67;;;;;-144.24;100.00;60536.00;5065942;28;59155;-76
2023/06/13 06:11:16;;;;;;;;;27.00;23.67;;;;;-144.24;100.00;60536.00;5072486;28;47395;-76
2023/06/13 06:13:41;;;;;;;;;24.33;24.00;;;;;-144.24;100.00;60536.00;5070178;28;45506;-75
2023/06/13 06:16:07;;;;;;;;;28.00;24.00;;;;;-144.24;100.00;60536.00;5071871;28;63952;-76
2023/06/13 06:18:32;;;;;;;;;31.67;30.67;;;;;-144.24;100.00;60536.00;5072079;27;46178;-75
2023/06/13 06:20:57;;;;;;;;;27.00;24.33;;;;;-144.24;100.00;60536.00;5077071;27;46480;-74
2023/06/13 06:23:23;;;;;;;;;24.67;23.33;;;;;-144.24;100.00;60536.00;5072328;27;45540;-75
2023/06/13 06:25:48;;;;;;;;;26.67;22.00;;;;;-144.24;100.00;60536.00;5067694;27;50941;-75
2023/06/13 06:28:13;;;;;;;;;28.33;27.67;;;;;-144.24;100.00;60536.00;5067228;27;59335;-76
2023/06/13 06:30:39;;;;;;;;;31.00;23.67;;;;;-144.24;100.00;60536.00;5067599;27;66112;-75
2023/06/13 06:33:04;;;;;;;;;28.33;27.33;;;;;-144.24;100.00;60536.00;5074027;27;67877;-75
2023/06/13 06:35:29;;;;;;;;;29.67;27.67;;;;;-144.24;100.00;60536.00;5072947;27;57625;-75
2023/06/13 06:37:55;;;;;;;;;29.33;25.67;;;;;-144.24;100.00;60536.00;5065816;27;63488;-75
2023/06/13 06:40:20;;;;;;;;;28.33;24.00;;;;;-144.24;100.00;60536.00;5040244;28;49714;-76
2023/06/13 06:42:46;;;;;;;;;28.67;27.67;;;;;-144.24;100.00;60536.00;5067182;28;45426;-75
2023/06/13 06:45:12;;;;;;;;;28.67;26.33;;;;;-144.24;100.00;60536.00;5071869;28;62806;-75
2023/06/13 06:47:38;;;;;;;;;29.67;25.00;;;;;-144.24;100.00;60536.00;5072178;27;45561;-74
2023/06/13 06:50:03;;;;;;;;;26.00;25.67;;;;;-144.24;100.00;60536.00;5075303;28;45632;-75
2023/06/13 06:52:29;;;;;;;;;30.00;25.33;;;;;-144.24;100.00;60536.00;5074453;27;45401;-77
2023/06/13 06:54:55;;;;;;;;;28.67;24.67;;;;;-144.24;100.00;60536.00;5074809;27;45434;-74
2023/06/13 06:57:20;;;;;;;;;32.00;27.33;;;;;-144.24;100.00;60536.00;5077217;27;45547;-74
2023/06/13 06:59:45;;;;;;;;;27.67;26.33;;;;;-144.24;100.00;60536.00;5070488;27;46645;-76
2023/06/13 07:02:11;;;;;;;;;27.67;22.33;;;;;-144.24;100.00;60536.00;5072933;27;45276;-75
2023/06/13 07:04:36;;;;;;;;;23.67;22.00;;;;;-144.24;100.00;60536.00;5067426;27;45814;-75
2023/06/13 07:07:02;;;;;;;;;17.00;17.00;;;;;-144.24;100.00;60536.00;5072069;28;55944;-76
2023/06/13 07:09:28;;;;;;;;;28.67;22.33;;;;;-144.24;100.00;60536.00;5076267;27;45629;-75
2023/06/13 07:11:57;;;;;;;;;24.67;22.33;;;;;-144.24;100.00;60536.00;5066885;27;63922;-76
2023/06/13 07:14:23;;;;;;;;;20.33;18.67;;;;;-144.24;100.00;60536.00;5072322;27;45367;-77
2023/06/13 07:16:49;;;;;;;;;27.00;20.67;;;;;-144.24;100.00;60536.00;5070571;27;45660;-82
2023/06/13 07:19:15;;;;;;;;;19.67;18.00;;;;;-144.24;100.00;60536.00;5044279;28;47356;-78
2023/06/13 07:21:41;;;;;;;;;24.33;20.33;;;;;-144.24;100.00;60536.00;5067937;28;45434;-78
2023/06/13 07:24:06;;;;;;;;;19.67;18.00;;;;;-144.24;100.00;60536.00;5065292;28;45315;-77
2023/06/13 07:26:32;;;;;;;;;16.00;14.00;;;;;-144.24;100.00;60536.00;5065050;28;61191;-76
2023/06/13 07:28:57;;;;;;;;;5.67;3.00;;;;;-144.24;100.00;60536.00;5067443;28;69958;-78
2023/06/13 07:31:22;;;;;;;;;15.33;15.00;;;;;-144.24;100.00;60536.00;5066642;28;65365;-78
2023/06/13 07:33:48;;;;;;;;;15.67;15.33;;;;;-144.24;100.00;60536.00;5060702;28;45441;-79
2023/06/13 07:36:16;;;;;;;;;17.33;17.33;;;;;-144.24;100.00;60536.00;5026767;28;45610;-77
2023/06/13 07:38:41;;;;;;;;;18.67;15.67;;;;;-144.24;100.00;60536.00;5064058;28;45514;-77
2023/06/13 07:41:07;;;;;;;;;20.33;18.67;;;;;-144.24;100.00;60536.00;5060565;28;45302;-77
2023/06/13 07:43:32;;;;;;;;;16.33;15.00;;;;;-144.24;100.00;60536.00;5054932;27;45643;-77
2023/06/13 07:45:57;;;;;;;;;16.33;14.33;;;;;-144.24;100.00;60536.00;5068175;28;61177;-77
2023/06/13 07:48:23;;;;;;;;;11.33;10.33;;;;;-144.24;100.00;60536.00;5074154;28;56231;-78
2023/06/13 07:50:48;;;;;;;;;14.67;13.67;;;;;-144.24;100.00;60536.00;5074206;27;57489;-78
2023/06/13 07:53:13;;;;;;;;;16.00;16.00;;;;;-144.24;100.00;60536.00;5079247;27;45601;-77
2023/06/13 07:55:44;;;;;;;;;17.33;14.33;;;;;-144.24;100.00;60536.00;5074067;28;45606;-78
2023/06/13 07:58:10;;;;;;;;;13.67;13.33;;;;;-144.24;100.00;60536.00;5068271;27;47550;-79
2023/06/13 08:00:35;;;;;;;;;15.33;11.67;;;;;-144.24;100.00;60536.00;5066557;28;56152;-79
2023/06/13 08:03:01;;;;;;;;;15.67;13.00;;;;;-144.24;100.00;60536.00;5068208;28;66344;-81
2023/06/13 08:05:26;;;;;;;;;15.33;13.33;;;;;-144.24;100.00;60536.00;5066485;28;65292;-80
2023/06/13 08:07:51;;;;;;;;;16.00;14.33;;;;;-144.24;100.00;60536.00;5063438;28;46470;-81
2023/06/13 08:10:17;;;;;;;;;15.33;14.00;;;;;-144.24;100.00;60536.00;5047423;28;45599;-82
2023/06/13 08:12:42;;;;;;;;;18.33;17.33;;;;;-144.24;100.00;60536.00;5053331;28;46464;-80
2023/06/13 08:15:08;;;;;;;;;13.00;13.00;;;;;-144.24;100.00;60536.00;5060781;28;62968;-79
2023/06/13 08:17:36;;;;;;;;;16.33;15.33;;;;;-144.24;100.00;60536.00;5168445;22;46149;-81
2023/06/13 08:20:02;;;;;;;;;16.67;15.67;;;;;-144.24;100.00;60536.00;5044989;28;45466;-80
2023/06/13 08:22:27;;;;;;;;;13.67;13.33;;;;;-144.24;100.00;60536.00;5028324;28;45538;-81
2023/06/13 08:24:53;;;;;;;;;17.00;16.00;;;;;-144.24;100.00;60536.00;5044283;28;45202;-82
2023/06/13 08:27:18;;;;;;;;;14.67;14.67;;;;;-144.24;100.00;60536.00;5039370;28;46297;-79
2023/06/13 08:29:44;;;;;;;;;14.00;14.00;;;;;-144.24;100.00;60536.00;5042064;28;67214;-82
2023/06/13 08:32:09;;;;;;;;;30.00;27.00;;;;;-144.24;100.00;60536.00;5048719;28;45272;-79
2023/06/13 08:34:34;;;;;;;;;14.33;14.00;;;;;-144.24;100.00;60536.00;5051761;28;45503;-81
2023/06/13 08:37:00;;;;;;;;;13.33;13.33;;;;;-144.24;100.00;60536.00;5053674;28;69522;-79
2023/06/13 08:39:25;;;;;;;;;13.67;13.67;;;;;-144.24;100.00;60536.00;5050392;28;45427;-79
2023/06/13 08:41:52;;;;;;;;;16.33;16.33;;;;;-144.24;100.00;60536.00;5053341;28;45324;-80
2023/06/13 08:44:18;;;;;;;;;11.67;11.67;;;;;-144.24;100.00;60536.00;5050353;28;45387;-78
2023/06/13 08:46:43;;;;;;;;;17.00;16.00;;;;;-144.24;100.00;60536.00;5049485;28;69289;-80
2023/06/13 08:49:09;;;;;;;;;17.00;15.67;;;;;-144.24;100.00;60536.00;5050549;28;63421;-79
2023/06/13 08:51:36;;;;;;;;;12.67;12.67;;;;;-144.24;100.00;60536.00;5032475;28;45638;-79
2023/06/13 08:54:03;;;;;;;;;16.33;14.67;;;;;-144.24;100.00;60536.00;5049507;28;45471;-82
2023/06/13 08:56:34;;;;;;;;;17.33;14.67;;;;;-144.24;100.00;60536.00;5048193;28;47697;-79
2023/06/13 08:59:21;;;;;;;;;16.67;14.33;;;;;-144.24;100.00;60536.00;5049784;28;45354;-79
2023/06/13 09:01:47;;;;;;;;;14.00;12.00;;;;;-144.24;100.00;60536.00;5031519;28;45626;-81
2023/06/13 09:04:16;;;;;;;;;16.67;13.67;;;;;-144.24;100.00;60536.00;5054132;28;56024;-80
2023/06/13 09:06:43;;;;;;;;;15.33;14.00;;;;;-144.24;100.00;60536.00;5047327;28;46597;-79
2023/06/13 09:09:10;;;;;;;;;17.00;14.00;;;;;-144.24;100.00;60536.00;5032475;28;45453;-79
2023/06/13 09:11:36;;;;;;;;;17.67;14.00;;;;;-144.24;100.00;60536.00;5030485;28;45569;-81
2023/06/13 09:14:05;;;;;;;;;14.00;14.00;;;;;-144.24;100.00;60536.00;5047845;28;45529;-79
2023/06/13 09:16:32;;;;;;;;;14.00;13.33;;;;;-144.24;100.00;60536.00;5034675;28;45328;-82
2023/06/13 09:18:58;;;;;;;;;14.67;12.00;;;;;-144.24;100.00;60536.00;5039382;28;45590;-82
2023/06/13 09:21:23;;;;;;;;;14.00;13.00;;;;;-144.24;100.00;60536.00;5050831;28;45490;-82
2023/06/13 09:23:49;;;;;;;;;13.00;13.00;;;;;-144.24;100.00;60536.00;5051861;28;45566;-82
2023/06/13 09:26:17;;;;;;;;;17.67;16.67;;;;;-144.24;100.00;60536.00;5046796;28;46739;-81
2023/06/13 09:28:45;;;;;;;;;14.67;14.00;;;;;-144.24;100.00;60536.00;5037582;28;45867;-79
2023/06/13 09:31:10;;;;;;;;;12.67;12.67;;;;;-144.24;100.00;60536.00;5057482;28;45284;-79
2023/06/13 09:33:37;;;;;;;;;11.67;11.00;;;;;-144.24;100.00;60536.00;5051446;28;46137;-79
2023/06/13 09:36:03;;;;;;;;;13.00;13.00;;;;;-144.24;100.00;60536.00;5050288;28;46594;-79
2023/06/13 09:38:29;;;;;;;;;13.33;13.33;;;;;-144.24;100.00;60536.00;5047738;28;45484;-82
2023/06/13 09:40:56;;;;;;;;;11.67;11.67;;;;;-144.24;100.00;60536.00;5032705;28;45454;-79
2023/06/13 09:43:22;;;;;;;;;18.33;15.00;;;;;-144.24;100.00;60536.00;5053229;28;45559;-79
2023/06/13 09:45:48;;;;;;;;;13.33;12.00;;;;;-144.24;100.00;60536.00;5050816;28;45747;-79
2023/06/13 09:48:14;;;;;;;;;12.00;12.00;;;;;-144.24;100.00;60536.00;5058013;28;45341;-80
2023/06/13 09:50:40;;;;;;;;;13.33;12.00;;;;;-144.24;100.00;60536.00;5054602;28;45436;-84
2023/06/13 09:53:07;;;;;;;;;11.00;11.00;;;;;-144.24;100.00;60536.00;5033879;28;45669;-84
2023/06/13 09:55:33;;;;;;;;;13.33;12.00;;;;;-144.24;100.00;60536.00;5034161;28;48398;-80
2023/06/13 09:57:58;;;;;;;;;13.00;13.00;;;;;-144.24;100.00;60536.00;5051220;28;45507;-83
2023/06/13 10:00:23;;;;;;;;;12.33;12.33;;;;;-144.24;100.00;60536.00;5034081;28;45413;-80
2023/06/13 10:02:50;;;;;;;;;16.33;15.00;;;;;-144.24;100.00;60536.00;5054963;28;45209;-83
2023/06/13 10:05:15;;;;;;;;;15.67;14.33;;;;;-144.24;100.00;60536.00;5053025;28;45908;-80
2023/06/13 10:07:41;;;;;;;;;13.00;13.00;;;;;-144.24;100.00;60536.00;5056607;28;45510;-79
2023/06/13 10:10:07;;;;;;;;;17.00;14.33;;;;;-144.24;100.00;60536.00;5035219;28;63975;-82
2023/06/13 10:12:33;;;;;;;;;12.00;12.00;;;;;-144.24;100.00;60536.00;5051172;28;45432;-80
2023/06/13 10:15:01;;;;;;;;;14.00;13.00;;;;;-144.24;100.00;60536.00;5037410;28;46724;-80
2023/06/13 10:17:29;;;;;;;;;13.67;12.00;;;;;-144.24;100.00;60536.00;5049740;28;45506;-80
2023/06/13 10:20:00;;;;;;;;;13.67;12.33;;;;;-144.24;100.00;60536.00;5036203;28;45570;-82
2023/06/13 10:22:26;;;;;;;;;14.00;14.00;;;;;-144.24;100.00;60536.00;5055539;28;45277;-79
2023/06/13 10:24:52;;;;;;;;;13.33;12.00;;;;;-144.24;100.00;60536.00;5047672;28;47472;-80
2023/06/13 10:27:19;;;;;;;;;15.67;14.33;;;;;-144.24;100.00;60536.00;5054878;28;72457;-78
2023/06/13 10:30:09;;;;;;;;;13.00;11.00;;;;;-144.24;100.00;60536.00;5055531;28;45390;-79
2023/06/13 10:33:16;;;;;;;;;10.67;10.67;;;;;-144.24;100.00;60536.00;5031119;28;46195;-78
2023/06/13 10:36:08;;;;;;;;;12.67;12.67;;;;;-144.24;100.00;60536.00;5029971;28;47173;-79
2023/06/13 10:38:59;;;;;;;;;14.33;14.33;;;;;-144.24;100.00;60536.00;5048776;28;45443;-80
2023/06/13 10:41:40;;;;;;;;;14.67;14.67;;;;;-144.24;100.00;60536.00;5038394;28;45531;-81
2023/06/13 10:44:10;;;;;;;;;18.00;14.00;;;;;-144.24;100.00;60536.00;5054776;28;45490;-80
2023/06/13 10:46:36;;;;;;;;;14.33;14.33;;;;;-144.24;100.00;60536.00;5027800;28;47720;-81
2023/06/13 10:49:02;;;;;;;;;13.00;13.00;;;;;-144.24;100.00;60536.00;5036885;28;45524;-79
2023/06/13 10:51:30;;;;;;;;;12.00;11.67;;;;;-144.24;100.00;60536.00;5049214;28;45416;-82
2023/06/13 10:54:01;;;;;;;;;14.33;13.00;;;;;-144.24;100.00;60536.00;5049033;28;45282;-79